createdAt,value
2022-10-20T00:02:21.393Z,18.55
2022-10-20T00:04:49.794Z,17.65
2022-10-20T00:07:18.287Z,19.50
2022-10-20T00:09:46.202Z,18.45
2022-10-20T00:12:14.508Z,20.02
2022-10-20T00:14:42.388Z,17.23
2022-10-20T00:17:11.557Z,22.20
2022-10-20T00:19:40.167Z,20.17
2022-10-20T00:22:08.126Z,18.05
2022-10-20T00:24:36.406Z,18.23
2022-10-20T00:27:04.382Z,17.33
2022-10-20T00:29:33.081Z,19.85
2022-10-20T00:32:01.029Z,13.73
2022-10-20T00:34:29.016Z,20.00
2022-10-20T00:36:57.654Z,18.65
2022-10-20T00:39:25.884Z,16.13
2022-10-20T00:41:54.105Z,18.13
2022-10-20T00:44:54.784Z,17.58
2022-10-20T00:47:33.026Z,19.08
2022-10-20T00:50:13.494Z,17.65
2022-10-20T00:52:44.406Z,16.83
2022-10-20T00:55:15.786Z,15.23
2022-10-20T00:57:46.902Z,13.55
2022-10-20T01:00:16.333Z,14.98
2022-10-20T01:02:45.406Z,14.85
2022-10-20T01:05:14.819Z,13.20
2022-10-20T01:07:42.705Z,11.25
2022-10-20T01:10:12.174Z,12.95
2022-10-20T01:12:55.394Z,11.00
2022-10-20T01:15:44.039Z,15.27
2022-10-20T01:18:37.348Z,16.30
2022-10-20T01:21:24.300Z,17.40
2022-10-20T01:24:11.697Z,21.65
2022-10-20T01:27:04.940Z,16.58
2022-10-20T01:30:25.492Z,18.10
2022-10-20T01:32:53.641Z,19.85
2022-10-20T01:35:33.335Z,18.52
2022-10-20T01:38:07.998Z,18.63
2022-10-20T01:41:06.520Z,15.68
2022-10-20T01:43:38.919Z,13.07
2022-10-20T01:46:08.738Z,11.45
2022-10-20T01:48:40.469Z,12.68
2022-10-20T01:51:09.935Z,10.85
2022-10-20T01:53:38.350Z,14.50
2022-10-20T01:56:12.873Z,16.10
2022-10-20T01:58:58.707Z,11.40
2022-10-20T02:01:47.954Z,12.13
2022-10-20T02:04:18.704Z,13.35
2022-10-20T02:06:58.462Z,12.65
2022-10-20T02:09:45.688Z,12.40
2022-10-20T02:12:20.250Z,10.90
2022-10-20T02:14:48.933Z,14.13
2022-10-20T02:17:19.145Z,15.40
2022-10-20T02:19:51.648Z,12.60
2022-10-20T02:22:45.608Z,12.15
2022-10-20T02:25:13.862Z,14.57
2022-10-20T02:27:48.102Z,16.83
2022-10-20T02:30:19.081Z,13.73
2022-10-20T02:32:51.774Z,11.27
2022-10-20T02:35:26.240Z,12.02
2022-10-20T02:37:54.326Z,11.48
2022-10-20T02:40:23.267Z,14.23
2022-10-20T02:42:51.928Z,11.70
2022-10-20T02:45:20.701Z,13.60
2022-10-20T02:47:49.223Z,11.98
2022-10-20T02:50:17.723Z,10.50
2022-10-20T02:52:46.154Z,11.57
2022-10-20T02:55:14.543Z,14.98
2022-10-20T02:57:42.518Z,18.00
2022-10-20T03:00:11.146Z,16.85
2022-10-20T03:02:39.149Z,16.48
2022-10-20T03:05:07.939Z,14.23
2022-10-20T03:07:36.627Z,14.93
2022-10-20T03:10:06.110Z,11.18
2022-10-20T03:12:34.239Z,12.10
2022-10-20T03:15:02.792Z,14.85
2022-10-20T03:17:31.107Z,15.65
2022-10-20T03:19:59.894Z,14.52
2022-10-20T03:22:31.716Z,10.32
2022-10-20T03:25:00.043Z,13.23
2022-10-20T03:27:28.072Z,11.65
2022-10-20T03:29:55.957Z,14.15
2022-10-20T03:32:24.414Z,12.85
2022-10-20T03:34:52.309Z,13.27
2022-10-20T03:37:20.761Z,12.88
2022-10-20T03:39:48.724Z,10.95
2022-10-20T03:42:17.733Z,11.55
2022-10-20T03:44:46.084Z,13.57
2022-10-20T03:47:14.978Z,11.95
2022-10-20T03:49:43.419Z,12.48
2022-10-20T03:52:11.357Z,12.30
2022-10-20T03:54:41.004Z,15.77
2022-10-20T03:57:09.628Z,15.02
2022-10-20T03:59:38.000Z,14.73
2022-10-20T04:02:06.438Z,15.75
2022-10-20T04:04:34.772Z,13.82
2022-10-20T04:07:02.959Z,10.75
2022-10-20T04:09:31.293Z,11.05
2022-10-20T04:11:59.942Z,14.25
2022-10-20T04:14:27.988Z,16.92
2022-10-20T04:16:56.144Z,13.23
2022-10-20T04:19:24.197Z,19.80
2022-10-20T04:21:52.542Z,12.35
2022-10-20T04:24:20.713Z,11.30
2022-10-20T04:29:18.464Z,11.85
2022-10-20T04:31:48.996Z,12.88
2022-10-20T04:34:17.457Z,13.38
2022-10-20T04:36:45.501Z,12.35
2022-10-20T04:39:13.535Z,11.93
2022-10-20T04:41:41.955Z,12.60
2022-10-20T04:44:10.402Z,13.20
2022-10-20T04:46:38.508Z,11.30
2022-10-20T04:49:06.754Z,12.35
2022-10-20T04:51:34.980Z,10.35
2022-10-20T04:54:03.099Z,11.77
2022-10-20T04:56:31.690Z,12.68
2022-10-20T04:59:00.501Z,14.52
2022-10-20T05:01:30.735Z,11.23
2022-10-20T05:03:58.942Z,11.32
2022-10-20T05:06:30.038Z,13.43
2022-10-20T05:09:04.067Z,11.35
2022-10-20T05:11:36.627Z,10.93
2022-10-20T05:14:05.188Z,13.43
2022-10-20T05:16:33.226Z,15.05
2022-10-20T05:19:01.614Z,13.45
2022-10-20T05:21:31.565Z,13.38
2022-10-20T05:24:03.025Z,12.25
2022-10-20T05:26:35.014Z,10.35
2022-10-20T05:29:08.782Z,14.45
2022-10-20T05:31:44.025Z,21.58
2022-10-20T05:34:13.205Z,14.27
2022-10-20T05:36:41.209Z,15.93
2022-10-20T05:39:11.013Z,17.10
2022-10-20T05:41:39.386Z,12.43
2022-10-20T05:44:09.220Z,17.13
2022-10-20T05:46:41.598Z,13.15
2022-10-20T05:49:15.829Z,12.57
2022-10-20T05:51:46.193Z,11.98
2022-10-20T05:54:15.488Z,11.68
2022-10-20T05:56:44.144Z,11.68
2022-10-20T05:59:13.985Z,14.35
2022-10-20T06:01:48.482Z,12.98
2022-10-20T06:04:25.362Z,12.95
2022-10-20T06:06:54.261Z,14.35
2022-10-20T06:09:24.416Z,13.68
2022-10-20T06:11:53.386Z,15.20
2022-10-20T06:14:22.607Z,17.45
2022-10-20T06:16:55.032Z,12.68
2022-10-20T06:19:25.364Z,11.45
2022-10-20T06:21:53.507Z,10.05
2022-10-20T06:24:22.813Z,12.30
2022-10-20T06:26:51.772Z,11.65
2022-10-20T06:29:19.845Z,14.05
2022-10-20T06:31:50.679Z,9.35
2022-10-20T06:34:21.207Z,12.07
2022-10-20T06:36:50.622Z,7.35
2022-10-20T06:39:21.794Z,10.07
2022-10-20T06:41:51.869Z,7.70
2022-10-20T06:44:23.396Z,9.98
2022-10-20T06:46:52.766Z,8.27
2022-10-20T06:49:22.012Z,7.43
2022-10-20T06:51:50.720Z,8.27
2022-10-20T06:54:18.812Z,8.82
2022-10-20T06:56:47.687Z,11.00
2022-10-20T06:59:16.542Z,6.88
2022-10-20T07:01:44.539Z,8.93
2022-10-20T07:04:15.928Z,9.10
2022-10-20T07:06:45.588Z,7.50
2022-10-20T07:09:18.928Z,8.85
2022-10-20T07:11:52.889Z,8.00
2022-10-20T07:14:21.457Z,7.10
2022-10-20T07:16:50.044Z,8.07
2022-10-20T07:19:18.471Z,8.55
2022-10-20T07:21:46.646Z,8.32
2022-10-20T07:24:16.786Z,7.07
2022-10-20T07:26:45.315Z,6.22
2022-10-20T07:29:14.847Z,8.68
2022-10-20T07:31:45.890Z,10.00
2022-10-20T07:34:26.900Z,7.72
2022-10-20T07:36:56.526Z,7.68
2022-10-20T07:39:25.682Z,9.02
2022-10-20T07:41:53.789Z,8.88
2022-10-20T07:44:22.039Z,9.40
2022-10-20T07:46:50.244Z,8.38
2022-10-20T07:49:43.378Z,6.28
2022-10-20T07:52:06.662Z,6.45
2022-10-20T07:54:35.209Z,4.88
2022-10-20T07:57:03.322Z,5.68
2022-10-20T07:59:31.957Z,9.50
2022-10-20T08:02:00.491Z,5.65
2022-10-20T08:04:32.008Z,9.13
2022-10-20T08:07:00.909Z,7.00
2022-10-20T08:09:29.576Z,7.88
2022-10-20T08:11:57.983Z,7.68
2022-10-20T08:14:32.026Z,7.45
2022-10-20T08:17:01.508Z,8.73
2022-10-20T08:19:43.529Z,7.90
2022-10-20T08:22:13.208Z,6.20
2022-10-20T08:24:41.584Z,7.95
2022-10-20T08:27:09.516Z,9.25
2022-10-20T08:29:38.088Z,8.38
2022-10-20T08:32:06.923Z,8.05
2022-10-20T08:34:35.784Z,6.80
2022-10-20T08:37:05.052Z,8.50
2022-10-20T08:39:33.405Z,9.75
2022-10-20T08:42:08.399Z,11.00
2022-10-20T08:44:40.659Z,10.70
2022-10-20T08:47:37.513Z,12.53
2022-10-20T08:50:07.810Z,7.65
2022-10-20T08:52:36.174Z,6.90
2022-10-20T08:55:06.369Z,8.13
2022-10-20T08:57:36.690Z,7.47
2022-10-20T09:00:23.033Z,7.40
2022-10-20T09:02:51.790Z,9.68
2022-10-20T09:05:28.374Z,10.82
2022-10-20T09:07:58.843Z,9.43
2022-10-20T09:10:37.345Z,11.05
2022-10-20T09:13:27.360Z,6.68
2022-10-20T09:16:03.887Z,6.78
2022-10-20T09:18:33.130Z,7.97
2022-10-20T09:21:22.330Z,6.97
2022-10-20T09:23:54.205Z,9.43
2022-10-20T09:26:57.549Z,8.80
2022-10-20T09:29:35.459Z,8.88
2022-10-20T09:32:22.419Z,8.75
2022-10-20T09:34:52.904Z,10.18
2022-10-20T09:37:21.606Z,7.55
2022-10-20T09:39:56.675Z,8.02
2022-10-20T09:42:41.199Z,7.05
2022-10-20T09:45:31.476Z,7.07
2022-10-20T09:48:16.321Z,7.30
2022-10-20T09:50:50.154Z,7.65
2022-10-20T09:53:22.169Z,9.18
2022-10-20T09:56:11.021Z,7.95
2022-10-20T09:58:42.734Z,7.43
2022-10-20T10:01:14.796Z,7.57
2022-10-20T10:03:45.559Z,8.50
2022-10-20T10:06:42.041Z,8.35
2022-10-20T10:09:34.596Z,10.23
2022-10-20T10:12:17.517Z,8.35
2022-10-20T10:14:53.246Z,11.13
2022-10-20T10:17:42.160Z,8.65
2022-10-20T10:20:13.139Z,9.88
2022-10-20T10:22:43.020Z,10.48
2022-10-20T10:25:24.408Z,8.98
2022-10-20T10:28:24.312Z,6.47
2022-10-20T10:31:24.738Z,8.40
2022-10-20T10:34:00.883Z,10.35
2022-10-20T10:36:37.691Z,8.07
2022-10-20T10:39:12.845Z,8.55
2022-10-20T10:42:12.025Z,7.78
2022-10-20T10:44:48.781Z,8.57
2022-10-20T10:47:39.388Z,9.10
2022-10-20T10:50:54.362Z,11.40
2022-10-20T10:53:45.144Z,9.57
2022-10-20T10:56:31.205Z,8.02
2022-10-20T10:59:15.298Z,6.85
2022-10-20T11:01:51.800Z,7.45
2022-10-20T11:04:43.956Z,9.52
2022-10-20T11:07:27.158Z,8.63
2022-10-20T11:10:16.046Z,6.80
2022-10-20T11:12:50.513Z,8.70
2022-10-20T11:15:51.597Z,7.13
2022-10-20T11:18:56.636Z,8.27
2022-10-20T11:21:59.181Z,10.88
2022-10-20T11:25:12.588Z,10.33
2022-10-20T11:27:40.543Z,9.45
2022-10-20T11:30:19.513Z,9.73
2022-10-20T11:33:19.058Z,7.13
2022-10-20T11:36:13.405Z,7.90
2022-10-20T11:38:51.383Z,8.38
2022-10-20T11:41:50.071Z,7.70
2022-10-20T11:44:41.639Z,7.85
2022-10-20T11:47:17.168Z,6.43
2022-10-20T11:49:45.611Z,10.15
2022-10-20T11:53:01.209Z,6.53
2022-10-20T11:55:44.836Z,9.32
2022-10-20T12:01:03.076Z,6.10
2022-10-20T12:04:06.919Z,5.18
2022-10-20T12:09:22.462Z,7.63
2022-10-20T12:12:09.296Z,5.63
2022-10-20T12:14:50.263Z,5.90
2022-10-20T12:17:26.336Z,8.50
2022-10-20T12:20:22.931Z,7.93
2022-10-20T12:22:56.089Z,7.57
2022-10-20T12:25:26.897Z,8.68
2022-10-20T12:30:44.955Z,12.82
2022-10-20T12:33:19.668Z,20.67
2022-10-20T12:36:18.008Z,32.80
2022-10-20T12:38:53.155Z,6.97
2022-10-20T12:41:30.577Z,8.82
2022-10-20T12:44:16.690Z,7.10
2022-10-20T12:46:58.073Z,7.00
2022-10-20T12:49:39.371Z,6.20
2022-10-20T12:52:18.954Z,8.05
2022-10-20T12:54:53.563Z,6.25
2022-10-20T12:57:41.475Z,6.95
2022-10-20T13:00:23.572Z,10.57
2022-10-20T13:02:59.256Z,8.97
2022-10-20T13:05:47.420Z,6.97
2022-10-20T13:08:21.970Z,7.10
2022-10-20T13:10:50.568Z,6.32
2022-10-20T13:13:18.523Z,6.20
2022-10-20T13:15:52.250Z,7.88
2022-10-20T13:18:38.553Z,8.20
2022-10-20T13:21:21.306Z,9.98
2022-10-20T13:24:14.602Z,7.35
2022-10-20T13:29:25.409Z,6.68
2022-10-20T13:32:01.410Z,7.85
2022-10-20T13:34:50.936Z,6.85
2022-10-20T13:37:56.250Z,6.68
2022-10-20T13:40:46.142Z,7.18
2022-10-20T13:43:33.216Z,5.03
2022-10-20T13:46:08.634Z,9.52
2022-10-20T13:48:53.539Z,8.10
2022-10-20T13:51:39.466Z,8.18
2022-10-20T13:54:08.539Z,6.25
2022-10-20T13:56:37.924Z,6.63
2022-10-20T13:59:30.643Z,7.07
2022-10-20T14:02:03.910Z,6.90
2022-10-20T14:04:35.680Z,6.72
2022-10-20T14:07:13.274Z,5.22
2022-10-20T14:09:45.503Z,6.03
2022-10-20T14:12:24.907Z,7.68
2022-10-20T14:15:01.668Z,6.88
2022-10-20T14:17:32.007Z,7.40
2022-10-20T14:20:20.338Z,7.15
2022-10-20T14:22:49.727Z,8.15
2022-10-20T14:25:18.188Z,8.57
2022-10-20T14:27:47.631Z,5.97
2022-10-20T14:30:18.366Z,8.82
2022-10-20T14:32:49.269Z,8.23
2022-10-20T14:35:19.006Z,8.13
2022-10-20T14:37:59.011Z,6.22
2022-10-20T14:40:31.403Z,9.30
2022-10-20T14:43:13.048Z,7.57
2022-10-20T14:45:41.626Z,7.07
2022-10-20T14:48:15.976Z,7.47
2022-10-20T14:50:43.939Z,8.48
2022-10-20T14:53:27.418Z,8.90
2022-10-20T14:55:59.124Z,10.27
2022-10-20T14:58:53.310Z,8.38
2022-10-20T15:01:32.617Z,9.80
2022-10-20T15:04:05.799Z,10.10
2022-10-20T15:06:35.067Z,7.05
2022-10-20T15:09:04.249Z,7.32
2022-10-20T15:11:32.767Z,11.73
2022-10-20T15:14:01.392Z,7.03
2022-10-20T15:16:42.086Z,8.95
2022-10-20T15:19:37.280Z,8.02
2022-10-20T15:24:50.196Z,13.32
2022-10-20T15:27:18.809Z,9.40
2022-10-20T15:29:51.913Z,16.35
2022-10-20T15:32:20.361Z,8.93
2022-10-20T15:34:48.348Z,9.82
2022-10-20T15:37:16.400Z,8.30
2022-10-20T15:39:44.822Z,9.30
2022-10-20T15:42:12.972Z,9.73
2022-10-20T15:44:40.969Z,8.48
2022-10-20T15:47:10.156Z,12.32
2022-10-20T15:49:38.349Z,8.88
2022-10-20T15:52:06.528Z,13.68
2022-10-20T15:54:34.521Z,12.50
2022-10-20T15:57:02.680Z,13.63
2022-10-20T15:59:56.330Z,9.75
2022-10-20T16:04:52.902Z,10.02
2022-10-20T16:07:20.909Z,21.10
2022-10-20T16:09:48.831Z,11.90
2022-10-20T16:12:17.407Z,10.70
2022-10-20T16:14:45.903Z,14.07
2022-10-20T16:17:13.865Z,20.27
2022-10-20T16:19:42.360Z,13.80
2022-10-20T16:22:10.869Z,13.25
2022-10-20T16:24:39.904Z,10.93
2022-10-20T16:27:08.257Z,10.52
2022-10-20T16:29:36.719Z,13.48
2022-10-20T16:32:05.641Z,11.43
2022-10-20T16:34:33.668Z,9.65
2022-10-20T16:37:01.839Z,13.82
2022-10-20T16:39:30.329Z,20.50
2022-10-20T16:41:58.874Z,33.63
2022-10-20T16:44:28.068Z,32.60
2022-10-20T16:46:56.383Z,37.20
2022-10-20T16:49:24.881Z,33.97
2022-10-20T16:51:53.051Z,25.95
2022-10-20T16:54:21.088Z,21.02
2022-10-20T16:56:49.792Z,18.20
2022-10-20T16:59:18.585Z,23.90
2022-10-20T17:01:46.979Z,24.10
2022-10-20T17:04:15.381Z,21.48
2022-10-20T17:06:43.519Z,22.02
2022-10-20T17:09:11.651Z,21.05
2022-10-20T17:11:40.422Z,26.17
2022-10-20T17:14:08.408Z,20.48
2022-10-20T17:16:39.637Z,20.27
2022-10-20T17:19:32.676Z,24.02
2022-10-20T17:22:01.198Z,19.27
2022-10-20T17:24:29.595Z,20.55
2022-10-20T17:26:57.567Z,29.13
2022-10-20T17:29:26.520Z,22.40
2022-10-20T17:31:55.307Z,23.98
2022-10-20T17:34:23.776Z,22.17
2022-10-20T17:36:51.761Z,19.45
2022-10-20T17:39:22.172Z,19.75
2022-10-20T17:41:50.488Z,19.15
2022-10-20T17:44:18.744Z,20.83
2022-10-20T17:46:46.974Z,22.13
2022-10-20T17:49:15.248Z,20.05
2022-10-20T17:51:44.275Z,18.05
2022-10-20T17:54:13.081Z,12.50
2022-10-20T17:56:41.662Z,13.68
2022-10-20T18:01:44.102Z,13.32
2022-10-20T18:04:17.619Z,16.58
2022-10-20T18:06:46.185Z,13.07
2022-10-20T18:09:16.679Z,12.27
2022-10-20T18:11:47.521Z,13.65
2022-10-20T18:14:17.221Z,13.88
2022-10-20T18:16:45.990Z,12.27
2022-10-20T18:19:38.626Z,12.27
2022-10-20T18:22:06.806Z,15.45
2022-10-20T18:24:36.659Z,13.50
2022-10-20T18:27:06.048Z,16.15
2022-10-20T18:29:34.535Z,12.82
2022-10-20T18:32:03.206Z,14.32
2022-10-20T18:34:31.701Z,15.98
2022-10-20T18:37:03.537Z,15.77
2022-10-20T18:39:32.131Z,11.55
2022-10-20T18:42:00.662Z,15.32
2022-10-20T18:44:30.603Z,16.23
2022-10-20T18:46:59.581Z,13.95
2022-10-20T18:49:28.035Z,11.40
2022-10-20T18:51:56.054Z,10.38
2022-10-20T18:54:25.126Z,9.82
2022-10-20T18:56:54.389Z,9.18
2022-10-20T18:59:23.097Z,14.10
2022-10-20T19:01:51.090Z,11.43
2022-10-20T19:04:19.277Z,11.00
2022-10-20T19:06:49.002Z,10.57
2022-10-20T19:09:20.194Z,13.00
2022-10-20T19:14:23.443Z,13.32
2022-10-20T19:16:51.496Z,14.30
2022-10-20T19:19:20.020Z,11.95
2022-10-20T19:21:48.084Z,11.25
2022-10-20T19:24:23.332Z,12.60
2022-10-20T19:27:25.041Z,12.82
2022-10-20T19:29:53.304Z,10.90
2022-10-20T19:32:21.887Z,10.00
2022-10-20T19:34:50.540Z,12.10
2022-10-20T19:37:18.477Z,9.80
2022-10-20T19:39:47.026Z,12.43
2022-10-20T19:42:15.545Z,12.32
2022-10-20T19:44:43.576Z,11.82
2022-10-20T19:47:12.740Z,10.85
2022-10-20T19:49:41.194Z,12.45
2022-10-20T19:52:09.738Z,10.27
2022-10-20T19:54:37.968Z,9.07
2022-10-20T19:57:06.470Z,10.15
2022-10-20T19:59:35.113Z,10.25
2022-10-20T20:02:03.971Z,9.23
2022-10-20T20:04:31.979Z,8.93
2022-10-20T20:07:03.411Z,10.85
2022-10-20T20:09:31.810Z,9.30
2022-10-20T20:12:08.978Z,9.73
2022-10-20T20:14:36.935Z,13.30
2022-10-20T20:17:07.424Z,11.02
2022-10-20T20:22:06.784Z,13.45
2022-10-20T20:24:35.399Z,11.20
2022-10-20T20:27:03.895Z,15.10
2022-10-20T20:29:32.127Z,11.80
2022-10-20T20:32:00.251Z,12.40
2022-10-20T20:34:28.516Z,15.05
2022-10-20T20:36:57.056Z,13.00
2022-10-20T20:39:25.173Z,14.15
2022-10-20T20:41:53.540Z,10.35
2022-10-20T20:46:54.576Z,11.77
2022-10-20T20:49:23.040Z,11.55
2022-10-20T20:51:51.366Z,9.90
2022-10-20T20:54:20.059Z,10.15
2022-10-20T20:56:48.103Z,9.27
2022-10-20T20:59:16.262Z,10.40
2022-10-20T21:01:46.516Z,14.43
2022-10-20T21:04:14.571Z,10.85
2022-10-20T21:07:01.238Z,9.35
2022-10-20T21:09:31.198Z,10.18
2022-10-20T21:12:00.769Z,10.75
2022-10-20T21:14:28.951Z,9.82
2022-10-20T21:16:57.765Z,10.15
2022-10-20T21:19:26.192Z,11.27
2022-10-20T21:21:57.537Z,9.32
2022-10-20T21:24:26.745Z,9.40
2022-10-20T21:26:55.031Z,8.88
2022-10-20T21:29:23.392Z,9.48
2022-10-20T21:31:51.868Z,10.77
2022-10-20T21:34:19.892Z,10.13
2022-10-20T21:36:48.280Z,8.80
2022-10-20T21:39:16.829Z,9.38
2022-10-20T21:41:45.753Z,9.90
2022-10-20T21:44:15.138Z,11.35
2022-10-20T21:46:47.765Z,11.52
2022-10-20T21:49:21.441Z,14.63
2022-10-20T21:51:52.584Z,11.98
2022-10-20T21:54:24.155Z,9.27
2022-10-20T21:56:53.200Z,11.68
2022-10-20T21:59:30.569Z,11.40
2022-10-20T22:02:00.807Z,12.10
2022-10-20T22:04:30.304Z,11.20
2022-10-20T22:06:59.550Z,11.25
2022-10-20T22:09:28.275Z,11.25
2022-10-20T22:11:58.515Z,10.50
2022-10-20T22:14:27.390Z,10.30
2022-10-20T22:16:56.887Z,15.32
2022-10-20T22:19:26.064Z,13.95
2022-10-20T22:21:54.767Z,13.77
2022-10-20T22:24:23.733Z,11.63
2022-10-20T22:26:52.942Z,11.23
2022-10-20T22:29:22.458Z,8.73
2022-10-20T22:31:51.342Z,9.30
2022-10-20T22:34:19.335Z,9.23
2022-10-20T22:36:48.353Z,11.25
2022-10-20T22:39:16.431Z,10.13
2022-10-20T22:41:44.992Z,9.70
2022-10-20T22:44:12.983Z,9.13
2022-10-20T22:46:41.446Z,10.25
2022-10-20T22:49:11.605Z,11.75
2022-10-20T22:51:39.520Z,10.88
2022-10-20T22:54:08.298Z,9.65
2022-10-20T22:56:36.404Z,10.63
2022-10-20T22:59:04.792Z,9.57
2022-10-20T23:01:32.791Z,8.20
2022-10-20T23:04:01.243Z,9.00
2022-10-20T23:06:29.196Z,10.38
2022-10-20T23:08:57.198Z,10.57
2022-10-20T23:11:25.358Z,10.93
2022-10-20T23:13:53.874Z,11.07
2022-10-20T23:18:58.218Z,10.35
2022-10-20T23:21:26.753Z,8.75
2022-10-20T23:23:55.218Z,12.05
2022-10-20T23:26:23.650Z,10.68
2022-10-20T23:28:52.239Z,12.35
2022-10-20T23:31:21.905Z,13.70
2022-10-20T23:33:55.398Z,10.93
2022-10-20T23:36:24.279Z,13.05
2022-10-20T23:38:53.339Z,11.95
2022-10-20T23:41:22.046Z,11.05
2022-10-20T23:43:50.598Z,13.13
2022-10-20T23:46:18.900Z,9.00
2022-10-20T23:48:47.243Z,10.85
2022-10-20T23:51:15.253Z,10.82
2022-10-20T23:53:43.578Z,8.25
2022-10-20T23:57:02.887Z,9.27
2022-10-20T23:59:31.597Z,8.60
